sensor_id;sensor_type;location;lat;lon;timestamp;pressure;altitude;pressure_sealevel;temperature;humidity
60642;BME280;46837;52.446;-1.930;2024-02-14T00:00:11;99412.11;;;10.80;99.04
60642;BME280;46837;52.446;-1.930;2024-02-14T00:01:11;99410.53;;;10.79;98.97
60642;BME280;46837;52.446;-1.930;2024-02-14T00:02:09;99409.21;;;10.81;98.97
60642;BME280;46837;52.446;-1.930;2024-02-14T00:03:09;99408.56;;;10.80;98.87
60642;BME280;46837;52.446;-1.930;2024-02-14T00:04:10;99411.62;;;10.79;98.77
60642;BME280;46837;52.446;-1.930;2024-02-14T00:05:09;99407.83;;;10.76;98.71
60642;BME280;46837;52.446;-1.930;2024-02-14T00:06:09;99408.69;;;10.72;98.76
60642;BME280;46837;52.446;-1.930;2024-02-14T00:07:09;99407.43;;;10.71;99.06
60642;BME280;46837;52.446;-1.930;2024-02-14T00:08:09;99405.85;;;10.72;99.10
60642;BME280;46837;52.446;-1.930;2024-02-14T00:09:09;99407.27;;;10.71;99.06
60642;BME280;46837;52.446;-1.930;2024-02-14T00:10:09;99407.30;;;10.69;99.14
60642;BME280;46837;52.446;-1.930;2024-02-14T00:11:09;99407.24;;;10.70;99.23
60642;BME280;46837;52.446;-1.930;2024-02-14T00:12:09;99409.35;;;10.71;99.24
60642;BME280;46837;52.446;-1.930;2024-02-14T00:13:09;99408.63;;;10.72;99.11
60642;BME280;46837;52.446;-1.930;2024-02-14T00:14:10;99411.53;;;10.71;99.08
60642;BME280;46837;52.446;-1.930;2024-02-14T00:15:09;99407.65;;;10.72;99.22
60642;BME280;46837;52.446;-1.930;2024-02-14T00:16:09;99411.66;;;10.74;99.21
60642;BME280;46837;52.446;-1.930;2024-02-14T00:17:09;99408.96;;;10.73;99.06
60642;BME280;46837;52.446;-1.930;2024-02-14T00:18:09;99410.19;;;10.74;99.14
60642;BME280;46837;52.446;-1.930;2024-02-14T00:19:09;99417.45;;;10.76;99.02
60642;BME280;46837;52.446;-1.930;2024-02-14T00:20:09;99409.69;;;10.76;99.01
60642;BME280;46837;52.446;-1.930;2024-02-14T00:21:09;99414.52;;;10.78;99.02
60642;BME280;46837;52.446;-1.930;2024-02-14T00:22:09;99410.08;;;10.74;98.80
60642;BME280;46837;52.446;-1.930;2024-02-14T00:23:09;99410.62;;;10.76;99.08
60642;BME280;46837;52.446;-1.930;2024-02-14T00:24:09;99409.69;;;10.77;99.03
60642;BME280;46837;52.446;-1.930;2024-02-14T00:25:09;99407.07;;;10.76;98.98
60642;BME280;46837;52.446;-1.930;2024-02-14T00:26:09;99407.94;;;10.77;99.06
60642;BME280;46837;52.446;-1.930;2024-02-14T00:27:09;99406.27;;;10.78;99.03
60642;BME280;46837;52.446;-1.930;2024-02-14T00:28:09;99401.93;;;10.75;98.94
60642;BME280;46837;52.446;-1.930;2024-02-14T00:29:09;99404.01;;;10.74;98.92
60642;BME280;46837;52.446;-1.930;2024-02-14T00:30:09;99403.08;;;10.75;99.13
60642;BME280;46837;52.446;-1.930;2024-02-14T00:31:09;99405.81;;;10.76;99.13
60642;BME280;46837;52.446;-1.930;2024-02-14T00:32:09;99410.50;;;10.77;99.13
60642;BME280;46837;52.446;-1.930;2024-02-14T00:33:09;99409.82;;;10.79;99.15
60642;BME280;46837;52.446;-1.930;2024-02-14T00:34:09;99407.47;;;10.78;98.93
60642;BME280;46837;52.446;-1.930;2024-02-14T00:35:09;99410.42;;;10.80;98.99
60642;BME280;46837;52.446;-1.930;2024-02-14T00:36:09;99405.84;;;10.78;98.88
60642;BME280;46837;52.446;-1.930;2024-02-14T00:37:09;99410.61;;;10.77;98.82
60642;BME280;46837;52.446;-1.930;2024-02-14T00:38:09;99411.57;;;10.79;99.03
60642;BME280;46837;52.446;-1.930;2024-02-14T00:39:11;99405.75;;;10.76;98.79
60642;BME280;46837;52.446;-1.930;2024-02-14T00:40:09;99409.86;;;10.74;98.89
60642;BME280;46837;52.446;-1.930;2024-02-14T00:41:09;99410.54;;;10.73;98.99
60642;BME280;46837;52.446;-1.930;2024-02-14T00:42:09;99411.09;;;10.72;99.03
60642;BME280;46837;52.446;-1.930;2024-02-14T00:43:09;99412.77;;;10.68;98.85
60642;BME280;46837;52.446;-1.930;2024-02-14T00:44:09;99410.47;;;10.68;99.19
60642;BME280;46837;52.446;-1.930;2024-02-14T00:45:09;99413.37;;;10.67;99.30
60642;BME280;46837;52.446;-1.930;2024-02-14T00:46:09;99409.04;;;10.70;99.43
60642;BME280;46837;52.446;-1.930;2024-02-14T00:47:09;99412.76;;;10.69;99.24
60642;BME280;46837;52.446;-1.930;2024-02-14T00:48:09;99411.50;;;10.70;99.26
60642;BME280;46837;52.446;-1.930;2024-02-14T00:49:09;99411.68;;;10.67;99.06
60642;BME280;46837;52.446;-1.930;2024-02-14T00:50:09;99413.91;;;10.68;99.27
60642;BME280;46837;52.446;-1.930;2024-02-14T00:51:09;99411.89;;;10.68;99.28
60642;BME280;46837;52.446;-1.930;2024-02-14T00:52:09;99413.02;;;10.66;99.27
60642;BME280;46837;52.446;-1.930;2024-02-14T00:53:09;99412.58;;;10.65;99.49
60642;BME280;46837;52.446;-1.930;2024-02-14T00:54:09;99416.13;;;10.65;99.49
60642;BME280;46837;52.446;-1.930;2024-02-14T00:55:09;99409.79;;;10.65;99.47
60642;BME280;46837;52.446;-1.930;2024-02-14T00:56:09;99409.27;;;10.63;99.45
60642;BME280;46837;52.446;-1.930;2024-02-14T00:57:09;99410.02;;;10.63;99.58
60642;BME280;46837;52.446;-1.930;2024-02-14T00:58:09;99412.67;;;10.61;99.55
60642;BME280;46837;52.446;-1.930;2024-02-14T00:59:09;99413.38;;;10.62;99.67
60642;BME280;46837;52.446;-1.930;2024-02-14T01:00:09;99415.02;;;10.61;99.55
60642;BME280;46837;52.446;-1.930;2024-02-14T01:01:09;99414.93;;;10.63;99.68
60642;BME280;46837;52.446;-1.930;2024-02-14T01:02:09;99419.46;;;10.66;99.61
60642;BME280;46837;52.446;-1.930;2024-02-14T01:03:09;99420.10;;;10.61;99.47
60642;BME280;46837;52.446;-1.930;2024-02-14T01:04:09;99421.06;;;10.58;99.73
60642;BME280;46837;52.446;-1.930;2024-02-14T01:05:09;99419.75;;;10.58;99.92
60642;BME280;46837;52.446;-1.930;2024-02-14T01:06:09;99419.78;;;10.60;100.00
60642;BME280;46837;52.446;-1.930;2024-02-14T01:07:09;99415.11;;;10.59;99.91
60642;BME280;46837;52.446;-1.930;2024-02-14T01:08:09;99417.89;;;10.59;100.00
60642;BME280;46837;52.446;-1.930;2024-02-14T01:09:09;99415.48;;;10.59;99.98
60642;BME280;46837;52.446;-1.930;2024-02-14T01:10:09;99418.84;;;10.56;100.00
60642;BME280;46837;52.446;-1.930;2024-02-14T01:11:11;99414.04;;;10.55;100.00
60642;BME280;46837;52.446;-1.930;2024-02-14T01:12:09;99414.10;;;10.54;100.00
60642;BME280;46837;52.446;-1.930;2024-02-14T01:13:09;99415.50;;;10.52;100.00
60642;BME280;46837;52.446;-1.930;2024-02-14T01:14:09;99414.29;;;10.52;100.00
60642;BME280;46837;52.446;-1.930;2024-02-14T01:15:09;99416.94;;;10.54;100.00
60642;BME280;46837;52.446;-1.930;2024-02-14T01:16:09;99416.31;;;10.52;100.00
60642;BME280;46837;52.446;-1.930;2024-02-14T01:17:09;99413.69;;;10.53;100.00
60642;BME280;46837;52.446;-1.930;2024-02-14T01:18:09;99411.89;;;10.50;100.00
60642;BME280;46837;52.446;-1.930;2024-02-14T01:19:09;99416.86;;;10.51;100.00
60642;BME280;46837;52.446;-1.930;2024-02-14T01:20:09;99412.27;;;10.51;100.00
60642;BME280;46837;52.446;-1.930;2024-02-14T01:21:09;99411.12;;;10.52;100.00
60642;BME280;46837;52.446;-1.930;2024-02-14T01:22:09;99413.70;;;10.50;100.00
60642;BME280;46837;52.446;-1.930;2024-02-14T01:23:09;99406.57;;;10.48;100.00
60642;BME280;46837;52.446;-1.930;2024-02-14T01:24:09;99407.85;;;10.45;100.00
60642;BME280;46837;52.446;-1.930;2024-02-14T01:25:09;99407.80;;;10.43;100.00
60642;BME280;46837;52.446;-1.930;2024-02-14T01:26:09;99404.42;;;10.43;100.00
60642;BME280;46837;52.446;-1.930;2024-02-14T01:27:09;99403.24;;;10.46;100.00
60642;BME280;46837;52.446;-1.930;2024-02-14T01:28:09;99404.66;;;10.47;100.00
60642;BME280;46837;52.446;-1.930;2024-02-14T01:29:09;99404.80;;;10.44;100.00
60642;BME280;46837;52.446;-1.930;2024-02-14T01:30:09;99407.78;;;10.41;100.00
60642;BME280;46837;52.446;-1.930;2024-02-14T01:31:09;99407.15;;;10.43;100.00
60642;BME280;46837;52.446;-1.930;2024-02-14T01:32:09;99404.47;;;10.45;100.00
60642;BME280;46837;52.446;-1.930;2024-02-14T01:33:09;99400.70;;;10.45;100.00
60642;BME280;46837;52.446;-1.930;2024-02-14T01:34:09;99405.50;;;10.46;100.00
60642;BME280;46837;52.446;-1.930;2024-02-14T01:35:09;99405.31;;;10.48;100.00
60642;BME280;46837;52.446;-1.930;2024-02-14T01:36:09;99404.90;;;10.49;100.00
60642;BME280;46837;52.446;-1.930;2024-02-14T01:37:09;99406.97;;;10.53;100.00
60642;BME280;46837;52.446;-1.930;2024-02-14T01:38:09;99405.28;;;10.51;100.00
60642;BME280;46837;52.446;-1.930;2024-02-14T01:39:13;99408.45;;;10.50;100.00
60642;BME280;46837;52.446;-1.930;2024-02-14T01:40:09;99411.18;;;10.51;100.00
60642;BME280;46837;52.446;-1.930;2024-02-14T01:41:09;99411.51;;;10.51;100.00
60642;BME280;46837;52.446;-1.930;2024-02-14T01:42:10;99409.41;;;10.53;100.00
60642;BME280;46837;52.446;-1.930;2024-02-14T01:43:09;99406.21;;;10.53;100.00
60642;BME280;46837;52.446;-1.930;2024-02-14T01:44:09;99408.91;;;10.54;100.00
60642;BME280;46837;52.446;-1.930;2024-02-14T01:45:09;99411.32;;;10.53;100.00
60642;BME280;46837;52.446;-1.930;2024-02-14T01:46:09;99414.84;;;10.53;100.00
60642;BME280;46837;52.446;-1.930;2024-02-14T01:47:09;99406.73;;;10.54;100.00
60642;BME280;46837;52.446;-1.930;2024-02-14T01:48:09;99401.10;;;10.54;100.00
60642;BME280;46837;52.446;-1.930;2024-02-14T01:49:09;99398.72;;;10.52;100.00
60642;BME280;46837;52.446;-1.930;2024-02-14T01:50:11;99395.34;;;10.52;100.00
60642;BME280;46837;52.446;-1.930;2024-02-14T01:51:11;99395.67;;;10.51;100.00
60642;BME280;46837;52.446;-1.930;2024-02-14T01:52:09;99399.27;;;10.53;100.00
60642;BME280;46837;52.446;-1.930;2024-02-14T01:53:09;99400.98;;;10.55;100.00
60642;BME280;46837;52.446;-1.930;2024-02-14T01:54:09;99402.04;;;10.59;100.00
60642;BME280;46837;52.446;-1.930;2024-02-14T01:55:09;99405.21;;;10.58;100.00
60642;BME280;46837;52.446;-1.930;2024-02-14T01:56:09;99415.18;;;10.61;100.00
60642;BME280;46837;52.446;-1.930;2024-02-14T01:57:09;99427.31;;;10.63;100.00
60642;BME280;46837;52.446;-1.930;2024-02-14T01:58:09;99424.50;;;10.64;100.00
60642;BME280;46837;52.446;-1.930;2024-02-14T01:59:09;99427.07;;;10.63;100.00
60642;BME280;46837;52.446;-1.930;2024-02-14T02:00:11;99421.11;;;10.64;100.00
60642;BME280;46837;52.446;-1.930;2024-02-14T02:01:09;99423.73;;;10.64;100.00
60642;BME280;46837;52.446;-1.930;2024-02-14T02:02:11;99424.55;;;10.65;100.00
60642;BME280;46837;52.446;-1.930;2024-02-14T02:03:09;99427.77;;;10.66;100.00
60642;BME280;46837;52.446;-1.930;2024-02-14T02:04:09;99426.52;;;10.65;100.00
60642;BME280;46837;52.446;-1.930;2024-02-14T02:05:09;99417.39;;;10.63;100.00
60642;BME280;46837;52.446;-1.930;2024-02-14T02:06:09;99422.72;;;10.61;100.00
60642;BME280;46837;52.446;-1.930;2024-02-14T02:07:09;99420.86;;;10.62;100.00
60642;BME280;46837;52.446;-1.930;2024-02-14T02:08:10;99420.34;;;10.64;100.00
60642;BME280;46837;52.446;-1.930;2024-02-14T02:09:10;99417.75;;;10.63;100.00
60642;BME280;46837;52.446;-1.930;2024-02-14T02:10:09;99420.67;;;10.63;100.00
60642;BME280;46837;52.446;-1.930;2024-02-14T02:11:09;99419.38;;;10.63;100.00
60642;BME280;46837;52.446;-1.930;2024-02-14T02:12:10;99423.87;;;10.62;100.00
60642;BME280;46837;52.446;-1.930;2024-02-14T02:13:09;99420.75;;;10.63;100.00
60642;BME280;46837;52.446;-1.930;2024-02-14T02:14:09;99424.75;;;10.60;100.00
60642;BME280;46837;52.446;-1.930;2024-02-14T02:15:09;99422.88;;;10.62;100.00
60642;BME280;46837;52.446;-1.930;2024-02-14T02:16:09;99425.29;;;10.62;100.00
60642;BME280;46837;52.446;-1.930;2024-02-14T02:17:10;99419.66;;;10.63;100.00
60642;BME280;46837;52.446;-1.930;2024-02-14T02:18:09;99422.61;;;10.62;100.00
60642;BME280;46837;52.446;-1.930;2024-02-14T02:19:11;99422.34;;;10.62;100.00
60642;BME280;46837;52.446;-1.930;2024-02-14T02:20:10;99422.30;;;10.65;100.00
60642;BME280;46837;52.446;-1.930;2024-02-14T02:21:09;99426.73;;;10.65;100.00
60642;BME280;46837;52.446;-1.930;2024-02-14T02:22:09;99425.96;;;10.66;100.00
60642;BME280;46837;52.446;-1.930;2024-02-14T02:23:09;99423.23;;;10.65;100.00
60642;BME280;46837;52.446;-1.930;2024-02-14T02:24:09;99429.57;;;10.65;100.00
60642;BME280;46837;52.446;-1.930;2024-02-14T02:25:10;99432.14;;;10.67;100.00
60642;BME280;46837;52.446;-1.930;2024-02-14T02:26:09;99428.31;;;10.66;100.00
60642;BME280;46837;52.446;-1.930;2024-02-14T02:27:09;99430.28;;;10.67;100.00
60642;BME280;46837;52.446;-1.930;2024-02-14T02:28:09;99432.66;;;10.67;100.00
60642;BME280;46837;52.446;-1.930;2024-02-14T02:29:09;99432.88;;;10.68;100.00
60642;BME280;46837;52.446;-1.930;2024-02-14T02:30:09;99432.65;;;10.70;100.00
60642;BME280;46837;52.446;-1.930;2024-02-14T02:31:09;99436.98;;;10.67;100.00
60642;BME280;46837;52.446;-1.930;2024-02-14T02:32:09;99438.91;;;10.66;100.00
60642;BME280;46837;52.446;-1.930;2024-02-14T02:33:09;99429.87;;;10.67;100.00
60642;BME280;46837;52.446;-1.930;2024-02-14T02:34:09;99435.28;;;10.69;100.00
60642;BME280;46837;52.446;-1.930;2024-02-14T02:35:09;99437.40;;;10.70;100.00
60642;BME280;46837;52.446;-1.930;2024-02-14T02:36:09;99435.11;;;10.70;100.00
60642;BME280;46837;52.446;-1.930;2024-02-14T02:37:10;99440.08;;;10.70;100.00
60642;BME280;46837;52.446;-1.930;2024-02-14T02:38:09;99439.67;;;10.71;100.00
60642;BME280;46837;52.446;-1.930;2024-02-14T02:39:09;99433.77;;;10.72;100.00
60642;BME280;46837;52.446;-1.930;2024-02-14T02:40:09;99436.78;;;10.72;100.00
60642;BME280;46837;52.446;-1.930;2024-02-14T02:41:10;99438.68;;;10.74;100.00
60642;BME280;46837;52.446;-1.930;2024-02-14T02:42:09;99434.80;;;10.73;100.00
60642;BME280;46837;52.446;-1.930;2024-02-14T02:43:09;99436.25;;;10.75;100.00
60642;BME280;46837;52.446;-1.930;2024-02-14T02:44:09;99434.72;;;10.76;100.00
60642;BME280;46837;52.446;-1.930;2024-02-14T02:45:09;99434.50;;;10.77;100.00
60642;BME280;46837;52.446;-1.930;2024-02-14T02:46:09;99433.21;;;10.79;100.00
60642;BME280;46837;52.446;-1.930;2024-02-14T02:47:09;99421.79;;;10.79;100.00
60642;BME280;46837;52.446;-1.930;2024-02-14T02:48:09;99421.96;;;10.78;100.00
60642;BME280;46837;52.446;-1.930;2024-02-14T02:49:09;99421.05;;;10.77;100.00
60642;BME280;46837;52.446;-1.930;2024-02-14T02:50:09;99420.54;;;10.78;100.00
60642;BME280;46837;52.446;-1.930;2024-02-14T02:51:09;99409.31;;;10.75;100.00
60642;BME280;46837;52.446;-1.930;2024-02-14T02:52:09;99411.71;;;10.76;100.00
60642;BME280;46837;52.446;-1.930;2024-02-14T02:53:09;99409.50;;;10.74;100.00
60642;BME280;46837;52.446;-1.930;2024-02-14T02:54:09;99412.29;;;10.73;100.00
60642;BME280;46837;52.446;-1.930;2024-02-14T02:55:09;99408.80;;;10.72;100.00
60642;BME280;46837;52.446;-1.930;2024-02-14T02:56:09;99415.13;;;10.73;100.00
60642;BME280;46837;52.446;-1.930;2024-02-14T02:57:09;99416.11;;;10.73;100.00
60642;BME280;46837;52.446;-1.930;2024-02-14T02:58:09;99411.91;;;10.72;100.00
60642;BME280;46837;52.446;-1.930;2024-02-14T02:59:09;99404.86;;;10.72;100.00
60642;BME280;46837;52.446;-1.930;2024-02-14T03:00:09;99410.05;;;10.72;100.00
60642;BME280;46837;52.446;-1.930;2024-02-14T03:01:10;99412.42;;;10.75;100.00
60642;BME280;46837;52.446;-1.930;2024-02-14T03:02:12;99409.28;;;10.73;100.00
60642;BME280;46837;52.446;-1.930;2024-02-14T03:03:11;99407.84;;;10.70;100.00
60642;BME280;46837;52.446;-1.930;2024-02-14T03:04:09;99412.02;;;10.73;100.00
60642;BME280;46837;52.446;-1.930;2024-02-14T03:05:13;99412.15;;;10.74;100.00
60642;BME280;46837;52.446;-1.930;2024-02-14T03:06:09;99411.91;;;10.73;100.00
60642;BME280;46837;52.446;-1.930;2024-02-14T03:07:11;99410.46;;;10.75;100.00
60642;BME280;46837;52.446;-1.930;2024-02-14T03:08:10;99412.70;;;10.76;100.00
60642;BME280;46837;52.446;-1.930;2024-02-14T03:09:09;99405.81;;;10.76;100.00
60642;BME280;46837;52.446;-1.930;2024-02-14T03:10:09;99410.24;;;10.75;100.00
60642;BME280;46837;52.446;-1.930;2024-02-14T03:11:09;99406.80;;;10.75;100.00
60642;BME280;46837;52.446;-1.930;2024-02-14T03:12:09;99406.19;;;10.76;100.00
60642;BME280;46837;52.446;-1.930;2024-02-14T03:13:09;99406.47;;;10.74;100.00
60642;BME280;46837;52.446;-1.930;2024-02-14T03:14:09;99406.94;;;10.73;100.00
60642;BME280;46837;52.446;-1.930;2024-02-14T03:15:09;99406.93;;;10.73;100.00
60642;BME280;46837;52.446;-1.930;2024-02-14T03:16:09;99407.62;;;10.75;100.00
60642;BME280;46837;52.446;-1.930;2024-02-14T03:17:09;99411.64;;;10.72;100.00
60642;BME280;46837;52.446;-1.930;2024-02-14T03:18:12;99404.72;;;10.74;100.00
60642;BME280;46837;52.446;-1.930;2024-02-14T03:19:09;99406.52;;;10.75;100.00
60642;BME280;46837;52.446;-1.930;2024-02-14T03:20:13;99406.96;;;10.76;100.00
60642;BME280;46837;52.446;-1.930;2024-02-14T03:21:09;99400.23;;;10.77;100.00
60642;BME280;46837;52.446;-1.930;2024-02-14T03:22:11;99397.17;;;10.77;100.00
60642;BME280;46837;52.446;-1.930;2024-02-14T03:23:09;99397.34;;;10.75;100.00
60642;BME280;46837;52.446;-1.930;2024-02-14T03:24:09;99391.60;;;10.76;100.00
60642;BME280;46837;52.446;-1.930;2024-02-14T03:25:09;99390.31;;;10.79;100.00
60642;BME280;46837;52.446;-1.930;2024-02-14T03:26:10;99387.90;;;10.79;100.00
60642;BME280;46837;52.446;-1.930;2024-02-14T03:27:09;99387.14;;;10.80;100.00
60642;BME280;46837;52.446;-1.930;2024-02-14T03:28:11;99390.90;;;10.80;100.00
60642;BME280;46837;52.446;-1.930;2024-02-14T03:29:09;99387.66;;;10.77;100.00
60642;BME280;46837;52.446;-1.930;2024-02-14T03:30:09;99386.41;;;10.76;100.00
60642;BME280;46837;52.446;-1.930;2024-02-14T03:31:09;99383.81;;;10.78;100.00
60642;BME280;46837;52.446;-1.930;2024-02-14T03:32:09;99386.38;;;10.79;100.00
60642;BME280;46837;52.446;-1.930;2024-02-14T03:33:09;99387.49;;;10.81;100.00
60642;BME280;46837;52.446;-1.930;2024-02-14T03:34:09;99383.16;;;10.78;100.00
60642;BME280;46837;52.446;-1.930;2024-02-14T03:35:09;99378.62;;;10.78;100.00
60642;BME280;46837;52.446;-1.930;2024-02-14T03:36:09;99389.27;;;10.78;100.00
60642;BME280;46837;52.446;-1.930;2024-02-14T03:37:10;99388.32;;;10.76;100.00
60642;BME280;46837;52.446;-1.930;2024-02-14T03:38:11;99389.38;;;10.78;100.00
60642;BME280;46837;52.446;-1.930;2024-02-14T03:39:09;99382.09;;;10.77;100.00
60642;BME280;46837;52.446;-1.930;2024-02-14T03:40:09;99384.71;;;10.76;100.00
60642;BME280;46837;52.446;-1.930;2024-02-14T03:41:09;99378.18;;;10.79;100.00
60642;BME280;46837;52.446;-1.930;2024-02-14T03:42:10;99379.71;;;10.78;100.00
60642;BME280;46837;52.446;-1.930;2024-02-14T03:43:09;99385.66;;;10.79;100.00
60642;BME280;46837;52.446;-1.930;2024-02-14T03:44:09;99384.51;;;10.80;100.00
60642;BME280;46837;52.446;-1.930;2024-02-14T03:45:09;99389.40;;;10.82;100.00
60642;BME280;46837;52.446;-1.930;2024-02-14T03:46:09;99384.43;;;10.82;100.00
60642;BME280;46837;52.446;-1.930;2024-02-14T03:47:09;99383.16;;;10.83;100.00
60642;BME280;46837;52.446;-1.930;2024-02-14T03:48:09;99385.02;;;10.84;100.00
60642;BME280;46837;52.446;-1.930;2024-02-14T03:49:09;99377.27;;;10.87;100.00
60642;BME280;46837;52.446;-1.930;2024-02-14T03:50:11;99378.67;;;10.88;100.00
60642;BME280;46837;52.446;-1.930;2024-02-14T03:51:09;99382.55;;;10.89;100.00
60642;BME280;46837;52.446;-1.930;2024-02-14T03:52:12;99382.80;;;10.86;100.00
60642;BME280;46837;52.446;-1.930;2024-02-14T03:53:09;99381.93;;;10.85;100.00
60642;BME280;46837;52.446;-1.930;2024-02-14T03:54:09;99379.57;;;10.87;100.00
60642;BME280;46837;52.446;-1.930;2024-02-14T03:55:09;99376.19;;;10.85;100.00
60642;BME280;46837;52.446;-1.930;2024-02-14T03:56:09;99380.23;;;10.87;100.00
60642;BME280;46837;52.446;-1.930;2024-02-14T03:57:11;99378.17;;;10.90;100.00
60642;BME280;46837;52.446;-1.930;2024-02-14T03:58:09;99377.95;;;10.90;100.00
60642;BME280;46837;52.446;-1.930;2024-02-14T03:59:09;99383.74;;;10.91;100.00
60642;BME280;46837;52.446;-1.930;2024-02-14T04:00:11;99382.96;;;10.88;100.00
60642;BME280;46837;52.446;-1.930;2024-02-14T04:01:09;99382.27;;;10.89;100.00
60642;BME280;46837;52.446;-1.930;2024-02-14T04:02:09;99386.47;;;10.91;100.00
60642;BME280;46837;52.446;-1.930;2024-02-14T04:03:11;99384.29;;;10.89;100.00
60642;BME280;46837;52.446;-1.930;2024-02-14T04:04:09;99386.93;;;10.94;100.00
60642;BME280;46837;52.446;-1.930;2024-02-14T04:05:09;99392.09;;;10.97;100.00
60642;BME280;46837;52.446;-1.930;2024-02-14T04:06:09;99385.96;;;10.98;100.00
60642;BME280;46837;52.446;-1.930;2024-02-14T04:07:09;99386.07;;;10.96;100.00
60642;BME280;46837;52.446;-1.930;2024-02-14T04:08:09;99384.27;;;10.96;100.00
60642;BME280;46837;52.446;-1.930;2024-02-14T04:09:09;99386.29;;;10.96;100.00
60642;BME280;46837;52.446;-1.930;2024-02-14T04:10:09;99385.41;;;10.98;100.00
60642;BME280;46837;52.446;-1.930;2024-02-14T04:11:09;99380.33;;;10.98;100.00
60642;BME280;46837;52.446;-1.930;2024-02-14T04:12:09;99382.98;;;10.99;100.00
60642;BME280;46837;52.446;-1.930;2024-02-14T04:13:09;99377.46;;;10.99;100.00
60642;BME280;46837;52.446;-1.930;2024-02-14T04:14:09;99380.19;;;10.99;100.00
60642;BME280;46837;52.446;-1.930;2024-02-14T04:15:09;99375.96;;;11.02;100.00
60642;BME280;46837;52.446;-1.930;2024-02-14T04:16:09;99371.16;;;11.02;100.00
60642;BME280;46837;52.446;-1.930;2024-02-14T04:17:10;99384.01;;;11.01;100.00
60642;BME280;46837;52.446;-1.930;2024-02-14T04:18:09;99388.25;;;10.98;100.00
60642;BME280;46837;52.446;-1.930;2024-02-14T04:19:09;99382.36;;;10.97;100.00
60642;BME280;46837;52.446;-1.930;2024-02-14T04:20:09;99382.52;;;10.97;100.00
60642;BME280;46837;52.446;-1.930;2024-02-14T04:21:09;99379.30;;;10.97;100.00
60642;BME280;46837;52.446;-1.930;2024-02-14T04:22:09;99379.45;;;10.97;100.00
60642;BME280;46837;52.446;-1.930;2024-02-14T04:23:10;99385.80;;;10.96;100.00
60642;BME280;46837;52.446;-1.930;2024-02-14T04:24:09;99389.25;;;10.95;100.00
60642;BME280;46837;52.446;-1.930;2024-02-14T04:25:09;99393.36;;;11.01;100.00
60642;BME280;46837;52.446;-1.930;2024-02-14T04:26:09;99392.12;;;11.03;100.00
60642;BME280;46837;52.446;-1.930;2024-02-14T04:27:09;99398.07;;;11.04;100.00
60642;BME280;46837;52.446;-1.930;2024-02-14T04:28:09;99394.69;;;11.03;100.00
60642;BME280;46837;52.446;-1.930;2024-02-14T04:29:09;99398.90;;;11.03;100.00
60642;BME280;46837;52.446;-1.930;2024-02-14T04:30:09;99397.90;;;10.99;100.00
60642;BME280;46837;52.446;-1.930;2024-02-14T04:31:09;99396.00;;;11.03;100.00
60642;BME280;46837;52.446;-1.930;2024-02-14T04:32:09;99396.82;;;11.02;100.00
60642;BME280;46837;52.446;-1.930;2024-02-14T04:33:09;99393.27;;;11.03;100.00
60642;BME280;46837;52.446;-1.930;2024-02-14T04:34:11;99397.47;;;11.04;100.00
60642;BME280;46837;52.446;-1.930;2024-02-14T04:35:09;99397.25;;;11.05;100.00
60642;BME280;46837;52.446;-1.930;2024-02-14T04:36:09;99395.12;;;11.04;100.00
60642;BME280;46837;52.446;-1.930;2024-02-14T04:37:13;99392.66;;;11.05;100.00
60642;BME280;46837;52.446;-1.930;2024-02-14T04:38:09;99399.39;;;11.03;100.00
60642;BME280;46837;52.446;-1.930;2024-02-14T04:39:09;99401.20;;;11.03;100.00
60642;BME280;46837;52.446;-1.930;2024-02-14T04:40:09;99399.01;;;11.03;100.00
60642;BME280;46837;52.446;-1.930;2024-02-14T04:41:09;99402.29;;;11.03;100.00
60642;BME280;46837;52.446;-1.930;2024-02-14T04:42:09;99405.75;;;11.06;100.00
60642;BME280;46837;52.446;-1.930;2024-02-14T04:43:09;99398.75;;;11.07;100.00
60642;BME280;46837;52.446;-1.930;2024-02-14T04:44:10;99399.68;;;11.07;100.00
60642;BME280;46837;52.446;-1.930;2024-02-14T04:45:09;99399.86;;;11.10;100.00
60642;BME280;46837;52.446;-1.930;2024-02-14T04:46:09;99402.41;;;11.08;100.00
60642;BME280;46837;52.446;-1.930;2024-02-14T04:47:09;99403.23;;;11.07;100.00
60642;BME280;46837;52.446;-1.930;2024-02-14T04:48:09;99407.49;;;11.08;100.00
60642;BME280;46837;52.446;-1.930;2024-02-14T04:49:09;99401.38;;;11.06;100.00
60642;BME280;46837;52.446;-1.930;2024-02-14T04:50:09;99404.11;;;11.07;100.00
60642;BME280;46837;52.446;-1.930;2024-02-14T04:51:09;99403.29;;;11.07;100.00
60642;BME280;46837;52.446;-1.930;2024-02-14T04:52:09;99406.15;;;11.09;100.00
60642;BME280;46837;52.446;-1.930;2024-02-14T04:53:09;99407.26;;;11.03;100.00
60642;BME280;46837;52.446;-1.930;2024-02-14T04:54:09;99409.62;;;11.08;100.00
60642;BME280;46837;52.446;-1.930;2024-02-14T04:55:09;99403.39;;;11.08;100.00
60642;BME280;46837;52.446;-1.930;2024-02-14T04:56:09;99406.01;;;11.08;100.00
60642;BME280;46837;52.446;-1.930;2024-02-14T04:57:09;99412.58;;;11.08;100.00
60642;BME280;46837;52.446;-1.930;2024-02-14T04:58:09;99411.00;;;11.06;100.00
60642;BME280;46837;52.446;-1.930;2024-02-14T04:59:09;99412.75;;;11.07;100.00
60642;BME280;46837;52.446;-1.930;2024-02-14T05:00:09;99414.22;;;11.07;100.00
60642;BME280;46837;52.446;-1.930;2024-02-14T05:01:10;99413.85;;;11.06;100.00
60642;BME280;46837;52.446;-1.930;2024-02-14T05:02:09;99420.32;;;11.05;100.00
60642;BME280;46837;52.446;-1.930;2024-02-14T05:03:09;99417.89;;;11.07;100.00
60642;BME280;46837;52.446;-1.930;2024-02-14T05:04:09;99417.11;;;11.09;100.00
60642;BME280;46837;52.446;-1.930;2024-02-14T05:05:09;99417.52;;;11.09;100.00
60642;BME280;46837;52.446;-1.930;2024-02-14T05:06:09;99419.49;;;11.10;100.00
60642;BME280;46837;52.446;-1.930;2024-02-14T05:07:09;99419.92;;;11.12;100.00
60642;BME280;46837;52.446;-1.930;2024-02-14T05:08:09;99425.36;;;11.13;100.00
60642;BME280;46837;52.446;-1.930;2024-02-14T05:09:09;99424.54;;;11.13;100.00
60642;BME280;46837;52.446;-1.930;2024-02-14T05:10:10;99424.32;;;11.14;100.00